createdAt,value
2023-01-29T00:02:46.456Z,98539.59
2023-01-29T00:06:47.872Z,98532.94
2023-01-29T00:10:50.668Z,98542.34
2023-01-29T00:14:52.052Z,98536.25
2023-01-29T00:18:53.450Z,98530.84
2023-01-29T00:22:55.070Z,98529.56
2023-01-29T00:26:57.891Z,98536.25
2023-01-29T00:30:59.701Z,98546.31
2023-01-29T00:35:01.174Z,98538.34
2023-01-29T00:39:02.736Z,98542.34
2023-01-29T00:43:05.973Z,98540.44
2023-01-29T00:47:07.399Z,98538.34
2023-01-29T00:51:09.383Z,98534.59
2023-01-29T00:55:11.214Z,98530.44
2023-01-29T00:59:14.116Z,98522.50
2023-01-29T01:03:16.174Z,98524.38
2023-01-29T01:07:17.620Z,98526.88
2023-01-29T01:11:19.106Z,98523.31
2023-01-29T01:15:22.448Z,98526.66
2023-01-29T01:19:23.845Z,98515.59
2023-01-29T01:23:25.308Z,98526.03
2023-01-29T01:27:26.745Z,98512.03
2023-01-29T01:31:29.768Z,98519.16
2023-01-29T01:35:31.222Z,98523.72
2023-01-29T01:39:32.850Z,98511.41
2023-01-29T01:43:47.053Z,98507.44
2023-01-29T01:47:51.543Z,98504.09
2023-01-29T01:51:53.229Z,98490.31
2023-01-29T01:55:57.093Z,98495.13
2023-01-29T02:00:01.324Z,98494.91
2023-01-29T02:04:07.152Z,98488.66
2023-01-29T02:08:09.211Z,98504.09
2023-01-29T02:12:12.304Z,98488.84
2023-01-29T02:16:13.826Z,98494.91
2023-01-29T02:20:21.537Z,98503.06
2023-01-29T02:24:40.913Z,98506.19
2023-01-29T02:28:47.301Z,98509.94
2023-01-29T02:32:53.233Z,98509.72
2023-01-29T02:37:00.397Z,98508.50
2023-01-29T02:41:04.536Z,98510.97
2023-01-29T02:45:10.663Z,98497.84
2023-01-29T02:49:19.261Z,98502.66
2023-01-29T02:53:25.397Z,98509.53
2023-01-29T02:57:29.630Z,98501.59
2023-01-29T03:01:35.467Z,98508.25
2023-01-29T03:05:41.332Z,98502.81
2023-01-29T03:09:46.598Z,98492.38
2023-01-29T03:13:51.526Z,98492.59
2023-01-29T03:17:56.811Z,98491.56
2023-01-29T03:22:00.590Z,98495.31
2023-01-29T03:26:02.127Z,98503.25
2023-01-29T03:30:05.231Z,98498.88
2023-01-29T03:34:09.874Z,98504.91
2023-01-29T03:38:11.915Z,98507.66
2023-01-29T03:42:17.770Z,98517.03
2023-01-29T03:46:24.355Z,98520.78
2023-01-29T03:50:33.542Z,98522.44
2023-01-29T03:54:39.755Z,98522.06
2023-01-29T03:58:44.123Z,98522.91
2023-01-29T04:02:48.882Z,98529.97
2023-01-29T04:06:52.992Z,98525.38
2023-01-29T04:10:56.540Z,98520.59
2023-01-29T04:14:59.596Z,98517.88
2023-01-29T04:19:01.327Z,98513.31
2023-01-29T04:23:06.253Z,98526.44
2023-01-29T04:27:15.138Z,98523.72
2023-01-29T04:31:16.996Z,98528.72
2023-01-29T04:35:26.595Z,98527.50
2023-01-29T04:39:32.172Z,98519.78
2023-01-29T04:43:38.770Z,98525.84
2023-01-29T04:47:46.949Z,98528.94
2023-01-29T04:51:51.595Z,98524.56
2023-01-29T04:55:57.405Z,98525.63
2023-01-29T05:00:02.437Z,98510.78
2023-01-29T05:04:07.557Z,98507.44
2023-01-29T05:08:10.803Z,98513.28
2023-01-29T05:12:16.047Z,98510.78
2023-01-29T05:16:20.237Z,98495.72
2023-01-29T05:20:21.916Z,98500.13
2023-01-29T05:24:24.073Z,98500.31
2023-01-29T05:28:26.973Z,98502.84
2023-01-29T05:32:28.419Z,98500.75
2023-01-29T05:36:30.186Z,98498.03
2023-01-29T05:40:31.667Z,98497.81
2023-01-29T05:44:34.460Z,98504.09
2023-01-29T05:48:35.847Z,98517.66
2023-01-29T05:52:37.546Z,98518.06
2023-01-29T05:56:39.231Z,98526.41
2023-01-29T06:00:42.414Z,98512.44
2023-01-29T06:04:44.051Z,98501.53
2023-01-29T06:08:45.538Z,98493.03
2023-01-29T06:12:46.983Z,98484.66
2023-01-29T06:16:50.005Z,98472.75
2023-01-29T06:20:51.476Z,98472.13
2023-01-29T06:24:52.915Z,98476.09
2023-01-29T06:28:54.685Z,98462.69
2023-01-29T06:32:57.816Z,98462.31
2023-01-29T06:36:59.508Z,98460.41
2023-01-29T06:41:08.639Z,98468.16
2023-01-29T06:45:10.834Z,98467.75
2023-01-29T06:49:13.656Z,98475.00
2023-01-29T06:53:15.293Z,98488.53
2023-01-29T06:57:16.998Z,98492.28
2023-01-29T07:01:34.743Z,98497.78
2023-01-29T07:05:38.731Z,98499.66
2023-01-29T07:09:40.760Z,98510.47
2023-01-29T07:13:42.187Z,98506.31
2023-01-29T07:17:43.594Z,98519.03
2023-01-29T07:21:46.634Z,98517.38
2023-01-29T07:25:48.080Z,98509.41
2023-01-29T07:29:49.487Z,98506.25
2023-01-29T07:33:50.856Z,98503.97
2023-01-29T07:37:53.609Z,98507.56
2023-01-29T07:41:54.987Z,98518.06
2023-01-29T07:45:56.435Z,98512.44
2023-01-29T07:49:57.931Z,98519.91
2023-01-29T07:54:00.748Z,98523.03
2023-01-29T07:58:03.471Z,98532.88
2023-01-29T08:02:04.957Z,98521.63
2023-01-29T08:06:06.645Z,98535.63
2023-01-29T08:10:10.576Z,98561.06
2023-01-29T08:14:12.064Z,98570.50
2023-01-29T08:18:13.843Z,98570.44
2023-01-29T08:22:15.475Z,98574.81
2023-01-29T08:26:18.293Z,98557.34
2023-01-29T08:30:19.749Z,98551.28
2023-01-29T08:34:21.427Z,98568.00
2023-01-29T08:38:23.037Z,98574.06
2023-01-29T08:42:25.911Z,98573.25
2023-01-29T08:46:27.321Z,98573.88
2023-01-29T08:50:28.707Z,98577.84
2023-01-29T08:54:30.090Z,98597.25
2023-01-29T08:58:32.968Z,98607.72
2023-01-29T09:02:34.646Z,98608.31
2023-01-29T09:06:36.411Z,98607.25
2023-01-29T09:10:37.901Z,98608.50
2023-01-29T09:14:40.682Z,98598.47
2023-01-29T09:18:42.301Z,98597.88
2023-01-29T09:22:43.784Z,98595.19
2023-01-29T09:26:45.588Z,98586.00
2023-01-29T09:30:48.967Z,98590.59
2023-01-29T09:34:50.458Z,98601.47
2023-01-29T09:38:52.250Z,98592.28
2023-01-29T09:42:57.594Z,98584.75
2023-01-29T09:47:02.230Z,98579.75
2023-01-29T09:51:06.568Z,98569.69
2023-01-29T09:55:12.751Z,98568.03
2023-01-29T09:59:17.275Z,98562.16
2023-01-29T10:03:34.030Z,98560.06
2023-01-29T10:07:50.321Z,98548.94
2023-01-29T10:11:58.756Z,98547.88
2023-01-29T10:16:08.572Z,98552.66
2023-01-29T10:20:18.588Z,98554.50
2023-01-29T10:24:24.099Z,98549.94
2023-01-29T10:28:28.716Z,98547.56
2023-01-29T10:32:30.988Z,98555.72
2023-01-29T10:36:36.002Z,98544.28
2023-01-29T10:40:41.212Z,98532.19
2023-01-29T10:44:49.706Z,98532.34
2023-01-29T10:49:00.426Z,98532.09
2023-01-29T10:53:09.160Z,98518.53
2023-01-29T10:57:15.133Z,98513.06
2023-01-29T11:01:16.787Z,98497.56
2023-01-29T11:05:20.334Z,98493.69
2023-01-29T11:09:28.421Z,98495.94
2023-01-29T11:13:32.064Z,98502.88
2023-01-29T11:17:33.470Z,98492.41
2023-01-29T11:21:50.161Z,98494.25
2023-01-29T11:25:53.759Z,98496.34
2023-01-29T11:29:55.738Z,98498.66
2023-01-29T11:34:03.267Z,98478.97
2023-01-29T11:38:09.725Z,98468.66
2023-01-29T11:42:19.276Z,98454.41
2023-01-29T11:46:20.885Z,98453.91
2023-01-29T11:50:24.520Z,98451.13
2023-01-29T11:54:28.367Z,98434.03
2023-01-29T11:58:32.432Z,98430.59
2023-01-29T12:02:36.250Z,98419.16
2023-01-29T12:06:41.434Z,98420.50
2023-01-29T12:10:43.737Z,98410.22
2023-01-29T12:14:46.755Z,98396.00
2023-01-29T12:18:51.626Z,98394.19
2023-01-29T12:22:57.961Z,98384.47
2023-01-29T12:27:05.421Z,98394.63
2023-01-29T12:31:15.739Z,98391.72
2023-01-29T12:35:20.389Z,98388.91
2023-01-29T12:39:22.327Z,98388.72
2023-01-29T12:43:27.496Z,98378.22
2023-01-29T12:47:33.463Z,98370.91
2023-01-29T12:51:38.686Z,98368.84
2023-01-29T12:55:42.267Z,98357.66
2023-01-29T12:59:47.333Z,98351.97
2023-01-29T13:03:53.587Z,98346.03
2023-01-29T13:07:58.013Z,98353.25
2023-01-29T13:12:02.103Z,98353.41
2023-01-29T13:16:07.752Z,98355.81
2023-01-29T13:20:13.264Z,98344.88
2023-01-29T13:24:16.288Z,98344.09
2023-01-29T13:28:18.436Z,98326.88
2023-01-29T13:32:21.548Z,98336.91
2023-01-29T13:36:26.615Z,98334.44
2023-01-29T13:40:30.405Z,98343.22
2023-01-29T13:44:33.569Z,98348.63
2023-01-29T13:48:41.495Z,98351.34
2023-01-29T13:52:45.880Z,98359.16
2023-01-29T13:56:57.240Z,98362.88
2023-01-29T14:00:59.070Z,98348.69
2023-01-29T14:05:24.632Z,98338.59
2023-01-29T14:09:34.670Z,98336.09
2023-01-29T14:13:36.172Z,98322.94
2023-01-29T14:17:38.166Z,98318.09
2023-01-29T14:21:40.515Z,98309.03
2023-01-29T14:25:43.433Z,98317.97
2023-01-29T14:29:45.183Z,98305.78
2023-01-29T14:33:46.643Z,98305.22
2023-01-29T14:37:50.128Z,98319.81
2023-01-29T14:41:53.294Z,98313.66
2023-01-29T14:45:54.814Z,98322.88
2023-01-29T14:49:57.133Z,98303.53
2023-01-29T14:54:01.484Z,98302.03
2023-01-29T14:58:04.785Z,98296.66
2023-01-29T15:02:14.289Z,98287.06
2023-01-29T15:06:17.985Z,98295.34
2023-01-29T15:10:23.177Z,98291.25
2023-01-29T15:14:31.571Z,98309.28
2023-01-29T15:18:35.017Z,98296.97
2023-01-29T15:22:42.947Z,98294.09
2023-01-29T15:26:44.438Z,98290.25
2023-01-29T15:30:51.961Z,98294.56
2023-01-29T15:34:54.300Z,98298.41
2023-01-29T15:39:07.314Z,98295.94
2023-01-29T15:43:19.568Z,98288.59
2023-01-29T15:47:24.400Z,98292.41
2023-01-29T15:51:27.373Z,98281.16
2023-01-29T15:55:30.561Z,98280.81
2023-01-29T15:59:34.192Z,98282.72
2023-01-29T16:03:37.342Z,98291.69
2023-01-29T16:07:39.070Z,98294.59
2023-01-29T16:11:40.642Z,98281.78
2023-01-29T16:15:54.069Z,98285.53
2023-01-29T16:19:57.794Z,98265.09
2023-01-29T16:24:00.864Z,98277.19
2023-01-29T16:28:04.087Z,98277.22
2023-01-29T16:32:05.746Z,98279.09
2023-01-29T16:36:13.896Z,98274.41
2023-01-29T16:40:16.434Z,98282.34
2023-01-29T16:44:31.305Z,98288.34
2023-01-29T16:48:33.830Z,98287.34
2023-01-29T16:52:36.787Z,98288.63
2023-01-29T16:56:38.967Z,98290.72
2023-01-29T17:00:44.369Z,98292.22
2023-01-29T17:04:46.107Z,98281.16
2023-01-29T17:08:49.376Z,98290.94
2023-01-29T17:12:54.395Z,98280.28
2023-01-29T17:16:56.907Z,98289.91
2023-01-29T17:20:58.492Z,98293.22
2023-01-29T17:25:01.271Z,98293.66
2023-01-29T17:29:02.685Z,98298.06
2023-01-29T17:33:11.001Z,98310.34
2023-01-29T17:37:13.346Z,98300.97
2023-01-29T17:41:19.720Z,98300.34
2023-01-29T17:45:21.319Z,98294.31
2023-01-29T17:49:23.736Z,98288.22
2023-01-29T17:53:30.567Z,98289.31
2023-01-29T17:57:39.457Z,98297.88
2023-01-29T18:01:40.865Z,98296.19
2023-01-29T18:05:42.827Z,98295.97
2023-01-29T18:09:44.475Z,98298.47
2023-01-29T18:13:47.561Z,98287.00
2023-01-29T18:17:49.172Z,98274.91
2023-01-29T18:21:50.912Z,98277.41
2023-01-29T18:25:52.671Z,98275.09
2023-01-29T18:29:55.601Z,98266.34
2023-01-29T18:33:57.110Z,98273.22
2023-01-29T18:37:58.476Z,98265.91
2023-01-29T18:41:59.859Z,98272.78
2023-01-29T18:46:03.110Z,98272.38
2023-01-29T18:50:05.249Z,98263.41
2023-01-29T18:54:06.644Z,98270.72
2023-01-29T18:58:26.248Z,98267.78
2023-01-29T19:02:31.315Z,98266.34
2023-01-29T19:06:33.133Z,98262.53
2023-01-29T19:10:34.611Z,98272.78
2023-01-29T19:14:36.032Z,98275.66
2023-01-29T19:18:39.255Z,98266.44
2023-01-29T19:22:41.020Z,98267.69
2023-01-29T19:26:42.621Z,98267.66
2023-01-29T19:30:44.043Z,98261.88
2023-01-29T19:34:47.057Z,98272.31
2023-01-29T19:38:48.585Z,98272.94
2023-01-29T19:42:53.411Z,98271.66
2023-01-29T19:46:55.129Z,98272.97
2023-01-29T19:50:58.907Z,98286.50
2023-01-29T19:55:00.409Z,98270.91
2023-01-29T19:59:01.841Z,98260.72
2023-01-29T20:03:03.306Z,98264.91
2023-01-29T20:07:06.295Z,98271.16
2023-01-29T20:11:08.009Z,98266.56
2023-01-29T20:15:09.688Z,98262.78
2023-01-29T20:19:13.196Z,98264.47
2023-01-29T20:23:27.986Z,98263.63
2023-01-29T20:27:36.926Z,98262.31
2023-01-29T20:31:38.578Z,98263.53
2023-01-29T20:35:40.228Z,98243.09
2023-01-29T20:39:43.145Z,98243.50
2023-01-29T20:43:44.898Z,98241.00
2023-01-29T20:47:46.327Z,98232.03
2023-01-29T20:51:47.759Z,98225.22
2023-01-29T20:55:50.759Z,98222.53
2023-01-29T20:59:52.314Z,98217.72
2023-01-29T21:03:53.773Z,98215.63
2023-01-29T21:07:55.311Z,98206.44
2023-01-29T21:11:58.362Z,98197.50
2023-01-29T21:15:59.967Z,98193.53
2023-01-29T21:20:01.474Z,98194.59
2023-01-29T21:24:03.056Z,98179.00
2023-01-29T21:28:06.025Z,98181.06
2023-01-29T21:32:07.466Z,98166.69
2023-01-29T21:36:09.326Z,98160.66
2023-01-29T21:40:11.431Z,98169.38
2023-01-29T21:44:14.373Z,98173.16
2023-01-29T21:48:15.812Z,98184.19
2023-01-29T21:52:17.559Z,98187.13
2023-01-29T21:56:19.176Z,98195.88
2023-01-29T22:00:22.285Z,98203.59
2023-01-29T22:04:24.095Z,98199.63
2023-01-29T22:08:25.647Z,98197.31
2023-01-29T22:12:27.199Z,98195.25
2023-01-29T22:16:30.046Z,98188.19
2023-01-29T22:20:31.545Z,98192.13
2023-01-29T22:24:32.965Z,98180.84
2023-01-29T22:28:34.475Z,98183.69
2023-01-29T22:32:37.573Z,98183.06
2023-01-29T22:36:39.075Z,98178.88
2023-01-29T22:40:40.620Z,98170.31
2023-01-29T22:44:42.077Z,98170.47
2023-01-29T22:48:44.889Z,98165.91
2023-01-29T22:52:46.286Z,98155.66
2023-01-29T22:56:47.696Z,98135.44
2023-01-29T23:00:50.054Z,98129.59
2023-01-29T23:04:52.854Z,98111.00
2023-01-29T23:08:54.265Z,98112.06
2023-01-29T23:12:55.632Z,98095.16
2023-01-29T23:16:56.984Z,98111.06
2023-01-29T23:20:59.815Z,98101.25
2023-01-29T23:25:01.563Z,98086.88
2023-01-29T23:29:03.444Z,98092.09
2023-01-29T23:33:05.049Z,98083.56
2023-01-29T23:37:08.196Z,98065.66
2023-01-29T23:41:09.642Z,98054.19
2023-01-29T23:45:11.217Z,98037.28
2023-01-29T23:49:12.799Z,98022.78
2023-01-29T23:53:16.093Z,98012.38
2023-01-29T23:57:17.544Z,98013.66
